sensor_id;sensor_type;location;lat;lon;timestamp;P1;durP1;ratioP1;P2;durP2;ratioP2
8564;SDS011;4320;51.498;6.556;2024-01-30T00:01:05;16.63;;;10.77;;
8564;SDS011;4320;51.498;6.556;2024-01-30T00:03:31;19.08;;;12.75;;
8564;SDS011;4320;51.498;6.556;2024-01-30T00:05:56;19.33;;;14.18;;
8564;SDS011;4320;51.498;6.556;2024-01-30T00:08:22;18.25;;;13.57;;
8564;SDS011;4320;51.498;6.556;2024-01-30T00:10:47;16.38;;;12.73;;
8564;SDS011;4320;51.498;6.556;2024-01-30T00:13:13;16.55;;;12.98;;
8564;SDS011;4320;51.498;6.556;2024-01-30T00:15:41;17.73;;;12.38;;
8564;SDS011;4320;51.498;6.556;2024-01-30T00:18:06;15.00;;;11.13;;
8564;SDS011;4320;51.498;6.556;2024-01-30T00:20:32;20.83;;;12.32;;
8564;SDS011;4320;51.498;6.556;2024-01-30T00:22:58;16.85;;;11.52;;
8564;SDS011;4320;51.498;6.556;2024-01-30T00:25:23;14.93;;;10.48;;
8564;SDS011;4320;51.498;6.556;2024-01-30T00:27:49;13.25;;;9.30;;
8564;SDS011;4320;51.498;6.556;2024-01-30T00:30:15;12.07;;;9.23;;
8564;SDS011;4320;51.498;6.556;2024-01-30T00:32:40;13.73;;;9.55;;
8564;SDS011;4320;51.498;6.556;2024-01-30T00:35:06;13.75;;;9.65;;
8564;SDS011;4320;51.498;6.556;2024-01-30T00:37:32;12.80;;;9.32;;
8564;SDS011;4320;51.498;6.556;2024-01-30T00:39:57;13.00;;;9.48;;
8564;SDS011;4320;51.498;6.556;2024-01-30T00:42:23;14.63;;;9.75;;
8564;SDS011;4320;51.498;6.556;2024-01-30T00:44:49;15.07;;;11.00;;
8564;SDS011;4320;51.498;6.556;2024-01-30T00:47:15;13.35;;;9.15;;
8564;SDS011;4320;51.498;6.556;2024-01-30T00:49:40;11.23;;;8.45;;
8564;SDS011;4320;51.498;6.556;2024-01-30T00:52:06;13.82;;;8.95;;
8564;SDS011;4320;51.498;6.556;2024-01-30T00:54:31;11.15;;;9.10;;
8564;SDS011;4320;51.498;6.556;2024-01-30T00:56:57;17.15;;;9.77;;
8564;SDS011;4320;51.498;6.556;2024-01-30T00:59:23;13.40;;;9.38;;
8564;SDS011;4320;51.498;6.556;2024-01-30T01:01:48;13.45;;;9.50;;
8564;SDS011;4320;51.498;6.556;2024-01-30T01:04:14;13.98;;;9.65;;
8564;SDS011;4320;51.498;6.556;2024-01-30T01:06:40;11.55;;;9.07;;
8564;SDS011;4320;51.498;6.556;2024-01-30T01:09:08;16.15;;;9.98;;
8564;SDS011;4320;51.498;6.556;2024-01-30T01:11:36;16.45;;;9.90;;
8564;SDS011;4320;51.498;6.556;2024-01-30T01:14:02;13.55;;;9.93;;
8564;SDS011;4320;51.498;6.556;2024-01-30T01:16:31;13.40;;;9.25;;
8564;SDS011;4320;51.498;6.556;2024-01-30T01:18:56;15.95;;;9.07;;
8564;SDS011;4320;51.498;6.556;2024-01-30T01:21:22;11.40;;;9.50;;
8564;SDS011;4320;51.498;6.556;2024-01-30T01:23:48;12.38;;;9.15;;
8564;SDS011;4320;51.498;6.556;2024-01-30T01:26:13;13.70;;;9.85;;
8564;SDS011;4320;51.498;6.556;2024-01-30T01:28:40;14.63;;;10.05;;
8564;SDS011;4320;51.498;6.556;2024-01-30T01:31:06;15.15;;;10.85;;
8564;SDS011;4320;51.498;6.556;2024-01-30T01:33:32;15.32;;;9.45;;
8564;SDS011;4320;51.498;6.556;2024-01-30T01:35:58;14.27;;;9.80;;
8564;SDS011;4320;51.498;6.556;2024-01-30T01:38:27;12.85;;;9.43;;
8564;SDS011;4320;51.498;6.556;2024-01-30T01:40:53;13.25;;;9.82;;
8564;SDS011;4320;51.498;6.556;2024-01-30T01:43:18;14.20;;;9.90;;
8564;SDS011;4320;51.498;6.556;2024-01-30T01:45:47;15.35;;;10.00;;
8564;SDS011;4320;51.498;6.556;2024-01-30T01:48:13;13.82;;;9.70;;
8564;SDS011;4320;51.498;6.556;2024-01-30T01:50:39;17.33;;;9.93;;
8564;SDS011;4320;51.498;6.556;2024-01-30T01:53:05;14.73;;;10.27;;
8564;SDS011;4320;51.498;6.556;2024-01-30T01:55:33;14.65;;;9.63;;
8564;SDS011;4320;51.498;6.556;2024-01-30T01:57:59;14.75;;;9.90;;
8564;SDS011;4320;51.498;6.556;2024-01-30T02:00:25;13.52;;;9.80;;
8564;SDS011;4320;51.498;6.556;2024-01-30T02:02:51;14.75;;;10.25;;
8564;SDS011;4320;51.498;6.556;2024-01-30T02:05:19;14.30;;;9.80;;
8564;SDS011;4320;51.498;6.556;2024-01-30T02:07:45;12.80;;;9.07;;
8564;SDS011;4320;51.498;6.556;2024-01-30T02:10:10;14.65;;;9.27;;
8564;SDS011;4320;51.498;6.556;2024-01-30T02:12:36;14.15;;;9.15;;
8564;SDS011;4320;51.498;6.556;2024-01-30T02:15:02;15.52;;;9.75;;
8564;SDS011;4320;51.498;6.556;2024-01-30T02:17:29;13.48;;;9.80;;
8564;SDS011;4320;51.498;6.556;2024-01-30T02:19:55;17.98;;;9.77;;
8564;SDS011;4320;51.498;6.556;2024-01-30T02:22:21;14.70;;;10.15;;
8564;SDS011;4320;51.498;6.556;2024-01-30T02:24:48;13.80;;;9.50;;
8564;SDS011;4320;51.498;6.556;2024-01-30T02:27:13;12.00;;;10.23;;
8564;SDS011;4320;51.498;6.556;2024-01-30T02:29:39;17.33;;;11.02;;
8564;SDS011;4320;51.498;6.556;2024-01-30T02:32:04;15.40;;;10.48;;
8564;SDS011;4320;51.498;6.556;2024-01-30T02:34:31;13.18;;;8.88;;
8564;SDS011;4320;51.498;6.556;2024-01-30T02:36:56;15.88;;;9.48;;
8564;SDS011;4320;51.498;6.556;2024-01-30T02:39:22;13.13;;;9.25;;
8564;SDS011;4320;51.498;6.556;2024-01-30T02:41:48;13.60;;;9.85;;
8564;SDS011;4320;51.498;6.556;2024-01-30T02:44:13;14.30;;;9.88;;
8564;SDS011;4320;51.498;6.556;2024-01-30T02:46:39;14.25;;;10.65;;
8564;SDS011;4320;51.498;6.556;2024-01-30T02:49:04;14.52;;;9.95;;
8564;SDS011;4320;51.498;6.556;2024-01-30T02:51:30;14.05;;;9.68;;
8564;SDS011;4320;51.498;6.556;2024-01-30T02:53:56;16.02;;;10.32;;
8564;SDS011;4320;51.498;6.556;2024-01-30T02:56:21;14.20;;;9.63;;
8564;SDS011;4320;51.498;6.556;2024-01-30T02:58:47;15.30;;;10.32;;
8564;SDS011;4320;51.498;6.556;2024-01-30T03:01:13;15.90;;;9.82;;
8564;SDS011;4320;51.498;6.556;2024-01-30T03:03:38;15.65;;;9.13;;
8564;SDS011;4320;51.498;6.556;2024-01-30T03:06:05;14.38;;;9.65;;
8564;SDS011;4320;51.498;6.556;2024-01-30T03:08:32;15.23;;;10.65;;
8564;SDS011;4320;51.498;6.556;2024-01-30T03:10:59;16.25;;;10.27;;
8564;SDS011;4320;51.498;6.556;2024-01-30T03:13:25;15.48;;;10.68;;
8564;SDS011;4320;51.498;6.556;2024-01-30T03:15:51;13.15;;;9.98;;
8564;SDS011;4320;51.498;6.556;2024-01-30T03:18:17;14.68;;;9.95;;
8564;SDS011;4320;51.498;6.556;2024-01-30T03:20:43;14.23;;;9.50;;
8564;SDS011;4320;51.498;6.556;2024-01-30T03:23:08;13.45;;;9.55;;
8564;SDS011;4320;51.498;6.556;2024-01-30T03:25:34;12.68;;;9.98;;
8564;SDS011;4320;51.498;6.556;2024-01-30T03:27:59;16.50;;;10.38;;
8564;SDS011;4320;51.498;6.556;2024-01-30T03:30:25;20.77;;;10.77;;
8564;SDS011;4320;51.498;6.556;2024-01-30T03:32:51;15.32;;;10.73;;
8564;SDS011;4320;51.498;6.556;2024-01-30T03:35:16;16.52;;;10.65;;
8564;SDS011;4320;51.498;6.556;2024-01-30T03:37:43;14.48;;;9.65;;
8564;SDS011;4320;51.498;6.556;2024-01-30T03:40:09;15.95;;;10.23;;
8564;SDS011;4320;51.498;6.556;2024-01-30T03:42:35;14.45;;;9.95;;
8564;SDS011;4320;51.498;6.556;2024-01-30T03:45:01;17.98;;;11.02;;
8564;SDS011;4320;51.498;6.556;2024-01-30T03:47:27;15.52;;;10.50;;
8564;SDS011;4320;51.498;6.556;2024-01-30T03:49:53;16.92;;;9.98;;
8564;SDS011;4320;51.498;6.556;2024-01-30T03:52:18;16.63;;;9.75;;
8564;SDS011;4320;51.498;6.556;2024-01-30T03:54:44;15.65;;;10.75;;
8564;SDS011;4320;51.498;6.556;2024-01-30T03:57:09;13.80;;;9.95;;
8564;SDS011;4320;51.498;6.556;2024-01-30T03:59:35;14.95;;;10.27;;
8564;SDS011;4320;51.498;6.556;2024-01-30T04:02:01;16.08;;;9.93;;
8564;SDS011;4320;51.498;6.556;2024-01-30T04:04:27;13.48;;;10.65;;
8564;SDS011;4320;51.498;6.556;2024-01-30T04:06:52;16.05;;;10.55;;
8564;SDS011;4320;51.498;6.556;2024-01-30T04:09:18;18.58;;;11.30;;
8564;SDS011;4320;51.498;6.556;2024-01-30T04:11:43;12.88;;;9.57;;
8564;SDS011;4320;51.498;6.556;2024-01-30T04:14:09;14.85;;;11.13;;
8564;SDS011;4320;51.498;6.556;2024-01-30T04:16:35;15.07;;;10.75;;
8564;SDS011;4320;51.498;6.556;2024-01-30T04:19:01;15.77;;;10.18;;
8564;SDS011;4320;51.498;6.556;2024-01-30T04:21:26;14.05;;;9.43;;
8564;SDS011;4320;51.498;6.556;2024-01-30T04:23:52;12.40;;;8.88;;
8564;SDS011;4320;51.498;6.556;2024-01-30T04:26:18;17.65;;;11.02;;
8564;SDS011;4320;51.498;6.556;2024-01-30T04:28:44;14.25;;;9.90;;
8564;SDS011;4320;51.498;6.556;2024-01-30T04:31:10;14.70;;;10.48;;
8564;SDS011;4320;51.498;6.556;2024-01-30T04:33:36;15.73;;;10.52;;
8564;SDS011;4320;51.498;6.556;2024-01-30T04:36:02;12.68;;;9.45;;
8564;SDS011;4320;51.498;6.556;2024-01-30T04:38:28;14.98;;;10.15;;
8564;SDS011;4320;51.498;6.556;2024-01-30T04:40:54;14.18;;;9.52;;
8564;SDS011;4320;51.498;6.556;2024-01-30T04:43:20;13.23;;;9.70;;
8564;SDS011;4320;51.498;6.556;2024-01-30T04:45:46;12.73;;;9.98;;
8564;SDS011;4320;51.498;6.556;2024-01-30T04:48:12;11.63;;;9.32;;
8564;SDS011;4320;51.498;6.556;2024-01-30T04:50:38;14.25;;;10.23;;
8564;SDS011;4320;51.498;6.556;2024-01-30T04:53:04;13.88;;;9.55;;
8564;SDS011;4320;51.498;6.556;2024-01-30T04:55:29;12.45;;;9.25;;
8564;SDS011;4320;51.498;6.556;2024-01-30T04:57:55;14.65;;;10.20;;
8564;SDS011;4320;51.498;6.556;2024-01-30T05:00:21;16.05;;;10.05;;
8564;SDS011;4320;51.498;6.556;2024-01-30T05:02:46;15.23;;;10.65;;
8564;SDS011;4320;51.498;6.556;2024-01-30T05:05:12;16.42;;;10.20;;
8564;SDS011;4320;51.498;6.556;2024-01-30T05:07:38;14.65;;;9.70;;
8564;SDS011;4320;51.498;6.556;2024-01-30T05:10:06;16.77;;;10.43;;
8564;SDS011;4320;51.498;6.556;2024-01-30T05:12:31;12.52;;;9.70;;
8564;SDS011;4320;51.498;6.556;2024-01-30T05:14:57;14.82;;;10.00;;
8564;SDS011;4320;51.498;6.556;2024-01-30T05:17:23;15.40;;;10.10;;
8564;SDS011;4320;51.498;6.556;2024-01-30T05:19:48;16.52;;;10.73;;
8564;SDS011;4320;51.498;6.556;2024-01-30T05:22:14;15.25;;;10.63;;
8564;SDS011;4320;51.498;6.556;2024-01-30T05:24:40;15.93;;;10.55;;
8564;SDS011;4320;51.498;6.556;2024-01-30T05:27:07;14.77;;;10.20;;
8564;SDS011;4320;51.498;6.556;2024-01-30T05:29:33;16.20;;;9.75;;
8564;SDS011;4320;51.498;6.556;2024-01-30T05:31:58;13.98;;;9.98;;
8564;SDS011;4320;51.498;6.556;2024-01-30T05:34:24;13.88;;;9.98;;
8564;SDS011;4320;51.498;6.556;2024-01-30T05:36:50;12.35;;;9.15;;
8564;SDS011;4320;51.498;6.556;2024-01-30T05:39:15;15.55;;;9.70;;
8564;SDS011;4320;51.498;6.556;2024-01-30T05:41:41;14.20;;;10.57;;
8564;SDS011;4320;51.498;6.556;2024-01-30T05:44:06;14.63;;;9.25;;
8564;SDS011;4320;51.498;6.556;2024-01-30T05:46:33;13.43;;;9.45;;
8564;SDS011;4320;51.498;6.556;2024-01-30T05:48:58;14.07;;;9.85;;
8564;SDS011;4320;51.498;6.556;2024-01-30T05:51:24;16.95;;;9.80;;
8564;SDS011;4320;51.498;6.556;2024-01-30T05:53:49;14.30;;;9.10;;
8564;SDS011;4320;51.498;6.556;2024-01-30T05:56:15;15.10;;;9.75;;
8564;SDS011;4320;51.498;6.556;2024-01-30T05:58:41;13.10;;;9.23;;
8564;SDS011;4320;51.498;6.556;2024-01-30T06:01:08;14.27;;;9.77;;
8564;SDS011;4320;51.498;6.556;2024-01-30T06:03:34;13.98;;;9.48;;
8564;SDS011;4320;51.498;6.556;2024-01-30T06:06:00;13.40;;;9.20;;
8564;SDS011;4320;51.498;6.556;2024-01-30T06:08:25;12.27;;;9.43;;
8564;SDS011;4320;51.498;6.556;2024-01-30T06:10:51;13.48;;;9.32;;
8564;SDS011;4320;51.498;6.556;2024-01-30T06:13:17;14.95;;;9.20;;
8564;SDS011;4320;51.498;6.556;2024-01-30T06:15:42;12.90;;;9.05;;
8564;SDS011;4320;51.498;6.556;2024-01-30T06:18:08;12.93;;;9.35;;
8564;SDS011;4320;51.498;6.556;2024-01-30T06:20:34;12.43;;;9.68;;
8564;SDS011;4320;51.498;6.556;2024-01-30T06:22:59;13.70;;;9.75;;
8564;SDS011;4320;51.498;6.556;2024-01-30T06:25:25;14.52;;;9.70;;
8564;SDS011;4320;51.498;6.556;2024-01-30T06:27:51;16.20;;;10.63;;
8564;SDS011;4320;51.498;6.556;2024-01-30T06:30:17;15.07;;;9.90;;
8564;SDS011;4320;51.498;6.556;2024-01-30T06:32:43;11.20;;;8.10;;
8564;SDS011;4320;51.498;6.556;2024-01-30T06:35:09;13.27;;;9.02;;
8564;SDS011;4320;51.498;6.556;2024-01-30T06:37:35;11.45;;;8.60;;
8564;SDS011;4320;51.498;6.556;2024-01-30T06:40:01;13.30;;;8.80;;
8564;SDS011;4320;51.498;6.556;2024-01-30T06:42:27;15.57;;;9.07;;
8564;SDS011;4320;51.498;6.556;2024-01-30T06:44:53;18.35;;;9.90;;
8564;SDS011;4320;51.498;6.556;2024-01-30T06:47:18;16.08;;;9.00;;
8564;SDS011;4320;51.498;6.556;2024-01-30T06:49:44;11.52;;;9.18;;
8564;SDS011;4320;51.498;6.556;2024-01-30T06:52:10;14.48;;;9.18;;
8564;SDS011;4320;51.498;6.556;2024-01-30T06:54:36;16.40;;;9.25;;
8564;SDS011;4320;51.498;6.556;2024-01-30T06:57:02;12.60;;;8.65;;
8564;SDS011;4320;51.498;6.556;2024-01-30T06:59:28;13.23;;;8.90;;
8564;SDS011;4320;51.498;6.556;2024-01-30T07:01:53;13.05;;;9.60;;
8564;SDS011;4320;51.498;6.556;2024-01-30T07:04:19;13.48;;;9.77;;
8564;SDS011;4320;51.498;6.556;2024-01-30T07:06:44;18.08;;;9.60;;
8564;SDS011;4320;51.498;6.556;2024-01-30T07:09:10;15.35;;;10.48;;
8564;SDS011;4320;51.498;6.556;2024-01-30T07:11:37;13.30;;;9.00;;
8564;SDS011;4320;51.498;6.556;2024-01-30T07:14:02;19.40;;;11.23;;
8564;SDS011;4320;51.498;6.556;2024-01-30T07:16:31;13.93;;;9.65;;
8564;SDS011;4320;51.498;6.556;2024-01-30T07:18:57;15.13;;;9.30;;
8564;SDS011;4320;51.498;6.556;2024-01-30T07:21:22;17.85;;;9.25;;
8564;SDS011;4320;51.498;6.556;2024-01-30T07:23:53;13.52;;;8.80;;
8564;SDS011;4320;51.498;6.556;2024-01-30T07:26:19;12.70;;;8.65;;
8564;SDS011;4320;51.498;6.556;2024-01-30T07:28:44;13.60;;;8.80;;
8564;SDS011;4320;51.498;6.556;2024-01-30T07:31:10;14.32;;;9.50;;
8564;SDS011;4320;51.498;6.556;2024-01-30T07:33:36;11.93;;;8.65;;
8564;SDS011;4320;51.498;6.556;2024-01-30T07:36:01;12.57;;;8.85;;
8564;SDS011;4320;51.498;6.556;2024-01-30T07:38:27;15.02;;;9.57;;
8564;SDS011;4320;51.498;6.556;2024-01-30T07:40:52;13.93;;;9.10;;
8564;SDS011;4320;51.498;6.556;2024-01-30T07:43:18;17.88;;;10.27;;
8564;SDS011;4320;51.498;6.556;2024-01-30T07:45:45;17.05;;;11.02;;
8564;SDS011;4320;51.498;6.556;2024-01-30T07:48:10;13.63;;;9.05;;
8564;SDS011;4320;51.498;6.556;2024-01-30T07:50:36;12.57;;;9.18;;
8564;SDS011;4320;51.498;6.556;2024-01-30T07:53:02;13.45;;;9.57;;
8564;SDS011;4320;51.498;6.556;2024-01-30T07:55:27;16.98;;;10.93;;
8564;SDS011;4320;51.498;6.556;2024-01-30T07:57:54;13.95;;;10.70;;
8564;SDS011;4320;51.498;6.556;2024-01-30T08:00:20;15.85;;;9.70;;
8564;SDS011;4320;51.498;6.556;2024-01-30T08:02:47;14.77;;;8.90;;
8564;SDS011;4320;51.498;6.556;2024-01-30T08:05:12;13.07;;;9.27;;
8564;SDS011;4320;51.498;6.556;2024-01-30T08:07:40;17.75;;;9.68;;
8564;SDS011;4320;51.498;6.556;2024-01-30T08:10:06;12.20;;;8.93;;
8564;SDS011;4320;51.498;6.556;2024-01-30T08:12:32;13.27;;;9.38;;
8564;SDS011;4320;51.498;6.556;2024-01-30T08:14:58;14.27;;;9.77;;
8564;SDS011;4320;51.498;6.556;2024-01-30T08:17:23;13.45;;;9.75;;
8564;SDS011;4320;51.498;6.556;2024-01-30T08:19:49;20.77;;;9.60;;
8564;SDS011;4320;51.498;6.556;2024-01-30T08:22:14;14.82;;;10.25;;
8564;SDS011;4320;51.498;6.556;2024-01-30T08:24:40;16.23;;;10.20;;
8564;SDS011;4320;51.498;6.556;2024-01-30T08:27:06;14.07;;;9.07;;
8564;SDS011;4320;51.498;6.556;2024-01-30T08:29:34;14.38;;;9.57;;
8564;SDS011;4320;51.498;6.556;2024-01-30T08:32:00;13.88;;;8.95;;
8564;SDS011;4320;51.498;6.556;2024-01-30T08:34:26;11.70;;;9.00;;
8564;SDS011;4320;51.498;6.556;2024-01-30T08:36:52;17.40;;;11.25;;
8564;SDS011;4320;51.498;6.556;2024-01-30T08:39:18;13.32;;;9.10;;
8564;SDS011;4320;51.498;6.556;2024-01-30T08:41:43;13.30;;;8.90;;
8564;SDS011;4320;51.498;6.556;2024-01-30T08:44:09;11.32;;;8.45;;
8564;SDS011;4320;51.498;6.556;2024-01-30T08:46:36;11.77;;;8.77;;
8564;SDS011;4320;51.498;6.556;2024-01-30T08:49:02;11.68;;;9.30;;
8564;SDS011;4320;51.498;6.556;2024-01-30T08:51:29;11.70;;;8.93;;
8564;SDS011;4320;51.498;6.556;2024-01-30T08:53:55;13.25;;;9.18;;
8564;SDS011;4320;51.498;6.556;2024-01-30T08:56:20;15.50;;;9.70;;
8564;SDS011;4320;51.498;6.556;2024-01-30T08:58:46;14.75;;;9.52;;
8564;SDS011;4320;51.498;6.556;2024-01-30T09:01:11;13.13;;;9.13;;
8564;SDS011;4320;51.498;6.556;2024-01-30T09:03:37;15.60;;;9.57;;
8564;SDS011;4320;51.498;6.556;2024-01-30T09:06:08;15.43;;;8.70;;
8564;SDS011;4320;51.498;6.556;2024-01-30T09:08:34;11.45;;;8.82;;
8564;SDS011;4320;51.498;6.556;2024-01-30T09:10:59;16.83;;;9.18;;
8564;SDS011;4320;51.498;6.556;2024-01-30T09:13:25;12.48;;;8.63;;
8564;SDS011;4320;51.498;6.556;2024-01-30T09:15:50;12.95;;;8.93;;
8564;SDS011;4320;51.498;6.556;2024-01-30T09:18:16;18.15;;;9.07;;
8564;SDS011;4320;51.498;6.556;2024-01-30T09:20:42;11.57;;;8.57;;
8564;SDS011;4320;51.498;6.556;2024-01-30T09:23:07;13.48;;;8.80;;
8564;SDS011;4320;51.498;6.556;2024-01-30T09:25:33;13.63;;;9.10;;
8564;SDS011;4320;51.498;6.556;2024-01-30T09:27:59;14.68;;;8.98;;
8564;SDS011;4320;51.498;6.556;2024-01-30T09:30:25;13.00;;;8.90;;
8564;SDS011;4320;51.498;6.556;2024-01-30T09:32:50;16.10;;;8.90;;
8564;SDS011;4320;51.498;6.556;2024-01-30T09:35:16;14.88;;;9.10;;
8564;SDS011;4320;51.498;6.556;2024-01-30T09:37:41;10.25;;;8.07;;
8564;SDS011;4320;51.498;6.556;2024-01-30T09:40:07;11.43;;;8.05;;
8564;SDS011;4320;51.498;6.556;2024-01-30T09:42:34;14.00;;;8.85;;
8564;SDS011;4320;51.498;6.556;2024-01-30T09:45:03;11.35;;;7.80;;
8564;SDS011;4320;51.498;6.556;2024-01-30T09:47:39;12.90;;;8.40;;
8564;SDS011;4320;51.498;6.556;2024-01-30T09:50:08;11.80;;;7.97;;
8564;SDS011;4320;51.498;6.556;2024-01-30T09:52:35;11.00;;;7.78;;
8564;SDS011;4320;51.498;6.556;2024-01-30T09:55:01;12.45;;;8.38;;
8564;SDS011;4320;51.498;6.556;2024-01-30T09:57:27;13.82;;;8.60;;
8564;SDS011;4320;51.498;6.556;2024-01-30T09:59:53;14.63;;;9.13;;
8564;SDS011;4320;51.498;6.556;2024-01-30T10:02:19;12.85;;;9.38;;
8564;SDS011;4320;51.498;6.556;2024-01-30T10:04:48;14.50;;;8.80;;
8564;SDS011;4320;51.498;6.556;2024-01-30T10:07:15;13.30;;;8.70;;
8564;SDS011;4320;51.498;6.556;2024-01-30T10:09:44;13.02;;;8.02;;
8564;SDS011;4320;51.498;6.556;2024-01-30T10:12:10;11.43;;;8.13;;
8564;SDS011;4320;51.498;6.556;2024-01-30T10:14:40;12.02;;;8.02;;
8564;SDS011;4320;51.498;6.556;2024-01-30T10:17:09;12.57;;;8.57;;
8564;SDS011;4320;51.498;6.556;2024-01-30T10:19:36;13.40;;;8.60;;
8564;SDS011;4320;51.498;6.556;2024-01-30T10:22:05;15.93;;;8.32;;
8564;SDS011;4320;51.498;6.556;2024-01-30T10:24:33;11.70;;;8.38;;
8564;SDS011;4320;51.498;6.556;2024-01-30T10:26:59;18.23;;;8.82;;
8564;SDS011;4320;51.498;6.556;2024-01-30T10:29:25;11.48;;;8.88;;
8564;SDS011;4320;51.498;6.556;2024-01-30T10:32:03;11.18;;;8.68;;
8564;SDS011;4320;51.498;6.556;2024-01-30T10:34:30;11.88;;;8.10;;
8564;SDS011;4320;51.498;6.556;2024-01-30T10:37:09;10.40;;;8.27;;
8564;SDS011;4320;51.498;6.556;2024-01-30T10:39:38;13.30;;;8.73;;
8564;SDS011;4320;51.498;6.556;2024-01-30T10:42:05;12.02;;;7.95;;
8564;SDS011;4320;51.498;6.556;2024-01-30T10:44:39;12.30;;;7.93;;
8564;SDS011;4320;51.498;6.556;2024-01-30T10:47:12;16.20;;;8.02;;
8564;SDS011;4320;51.498;6.556;2024-01-30T10:49:40;10.95;;;7.78;;
8564;SDS011;4320;51.498;6.556;2024-01-30T10:52:08;13.32;;;8.18;;
8564;SDS011;4320;51.498;6.556;2024-01-30T10:54:35;13.25;;;7.88;;
8564;SDS011;4320;51.498;6.556;2024-01-30T10:57:02;14.02;;;7.95;;
8564;SDS011;4320;51.498;6.556;2024-01-30T10:59:29;12.48;;;8.13;;
8564;SDS011;4320;51.498;6.556;2024-01-30T11:01:57;9.30;;;7.57;;
8564;SDS011;4320;51.498;6.556;2024-01-30T11:04:24;10.90;;;7.65;;
8564;SDS011;4320;51.498;6.556;2024-01-30T11:06:50;12.00;;;7.88;;
8564;SDS011;4320;51.498;6.556;2024-01-30T11:09:17;11.75;;;7.55;;
8564;SDS011;4320;51.498;6.556;2024-01-30T11:11:49;14.60;;;9.18;;
8564;SDS011;4320;51.498;6.556;2024-01-30T11:14:29;11.02;;;8.35;;
8564;SDS011;4320;51.498;6.556;2024-01-30T11:16:58;10.75;;;8.13;;
8564;SDS011;4320;51.498;6.556;2024-01-30T11:19:25;25.83;;;16.25;;
8564;SDS011;4320;51.498;6.556;2024-01-30T11:21:55;11.98;;;8.15;;
8564;SDS011;4320;51.498;6.556;2024-01-30T11:24:22;13.35;;;8.77;;
8564;SDS011;4320;51.498;6.556;2024-01-30T11:26:57;10.48;;;7.85;;
8564;SDS011;4320;51.498;6.556;2024-01-30T11:29:27;11.55;;;8.45;;
8564;SDS011;4320;51.498;6.556;2024-01-30T11:31:54;14.88;;;8.25;;
8564;SDS011;4320;51.498;6.556;2024-01-30T11:34:20;12.93;;;8.40;;
8564;SDS011;4320;51.498;6.556;2024-01-30T11:37:00;14.85;;;8.57;;
8564;SDS011;4320;51.498;6.556;2024-01-30T11:39:30;13.07;;;8.63;;
8564;SDS011;4320;51.498;6.556;2024-01-30T11:41:56;10.20;;;7.63;;
8564;SDS011;4320;51.498;6.556;2024-01-30T11:44:23;13.07;;;8.63;;
8564;SDS011;4320;51.498;6.556;2024-01-30T11:46:49;15.10;;;7.53;;
8564;SDS011;4320;51.498;6.556;2024-01-30T11:49:16;11.52;;;7.90;;
8564;SDS011;4320;51.498;6.556;2024-01-30T11:51:47;12.85;;;8.13;;
8564;SDS011;4320;51.498;6.556;2024-01-30T11:54:14;11.82;;;8.15;;
8564;SDS011;4320;51.498;6.556;2024-01-30T11:56:42;10.27;;;7.82;;
8564;SDS011;4320;51.498;6.556;2024-01-30T11:59:08;12.55;;;8.13;;
8564;SDS011;4320;51.498;6.556;2024-01-30T12:01:34;18.25;;;8.95;;
8564;SDS011;4320;51.498;6.556;2024-01-30T12:04:00;13.55;;;7.80;;
8564;SDS011;4320;51.498;6.556;2024-01-30T12:06:25;14.05;;;8.02;;
8564;SDS011;4320;51.498;6.556;2024-01-30T12:09:01;10.80;;;7.45;;
8564;SDS011;4320;51.498;6.556;2024-01-30T12:11:33;12.35;;;7.93;;
8564;SDS011;4320;51.498;6.556;2024-01-30T12:14:08;9.60;;;7.65;;
8564;SDS011;4320;51.498;6.556;2024-01-30T12:16:34;13.05;;;8.02;;
8564;SDS011;4320;51.498;6.556;2024-01-30T12:19:00;12.55;;;7.70;;
8564;SDS011;4320;51.498;6.556;2024-01-30T12:21:28;10.93;;;7.55;;
8564;SDS011;4320;51.498;6.556;2024-01-30T12:23:55;13.25;;;8.35;;
8564;SDS011;4320;51.498;6.556;2024-01-30T12:26:23;16.73;;;8.30;;
8564;SDS011;4320;51.498;6.556;2024-01-30T12:28:50;14.35;;;8.70;;
8564;SDS011;4320;51.498;6.556;2024-01-30T12:31:24;11.88;;;7.78;;
8564;SDS011;4320;51.498;6.556;2024-01-30T12:33:52;13.63;;;7.47;;
8564;SDS011;4320;51.498;6.556;2024-01-30T12:36:17;11.70;;;8.50;;
8564;SDS011;4320;51.498;6.556;2024-01-30T12:38:43;11.93;;;8.43;;
8564;SDS011;4320;51.498;6.556;2024-01-30T12:41:10;12.18;;;8.02;;
8564;SDS011;4320;51.498;6.556;2024-01-30T12:43:36;9.95;;;6.82;;
8564;SDS011;4320;51.498;6.556;2024-01-30T12:46:02;13.13;;;7.13;;
8564;SDS011;4320;51.498;6.556;2024-01-30T12:48:28;14.52;;;8.27;;
8564;SDS011;4320;51.498;6.556;2024-01-30T12:50:54;12.38;;;7.25;;
8564;SDS011;4320;51.498;6.556;2024-01-30T12:53:21;11.95;;;7.20;;
8564;SDS011;4320;51.498;6.556;2024-01-30T12:55:47;9.25;;;6.32;;
8564;SDS011;4320;51.498;6.556;2024-01-30T12:58:14;10.65;;;6.82;;
8564;SDS011;4320;51.498;6.556;2024-01-30T13:00:40;11.48;;;6.47;;
8564;SDS011;4320;51.498;6.556;2024-01-30T13:03:07;9.45;;;6.50;;
8564;SDS011;4320;51.498;6.556;2024-01-30T13:05:33;14.55;;;6.57;;
8564;SDS011;4320;51.498;6.556;2024-01-30T13:07:59;10.02;;;5.95;;
8564;SDS011;4320;51.498;6.556;2024-01-30T13:10:24;13.07;;;6.80;;
8564;SDS011;4320;51.498;6.556;2024-01-30T13:12:50;10.40;;;6.80;;
8564;SDS011;4320;51.498;6.556;2024-01-30T13:15:16;8.18;;;5.82;;
8564;SDS011;4320;51.498;6.556;2024-01-30T13:17:41;8.73;;;5.90;;
8564;SDS011;4320;51.498;6.556;2024-01-30T13:20:09;12.25;;;6.63;;
8564;SDS011;4320;51.498;6.556;2024-01-30T13:22:34;8.93;;;6.18;;
8564;SDS011;4320;51.498;6.556;2024-01-30T13:25:00;9.77;;;6.35;;
8564;SDS011;4320;51.498;6.556;2024-01-30T13:27:26;10.80;;;6.32;;
8564;SDS011;4320;51.498;6.556;2024-01-30T13:29:52;10.20;;;6.72;;
8564;SDS011;4320;51.498;6.556;2024-01-30T13:32:17;11.68;;;6.85;;
8564;SDS011;4320;51.498;6.556;2024-01-30T13:34:43;10.05;;;6.30;;
8564;SDS011;4320;51.498;6.556;2024-01-30T13:37:09;7.68;;;5.95;;
8564;SDS011;4320;51.498;6.556;2024-01-30T13:39:34;10.32;;;6.45;;
8564;SDS011;4320;51.498;6.556;2024-01-30T13:42:00;10.10;;;6.43;;
8564;SDS011;4320;51.498;6.556;2024-01-30T13:44:25;10.65;;;6.72;;
8564;SDS011;4320;51.498;6.556;2024-01-30T13:46:51;9.45;;;6.45;;
8564;SDS011;4320;51.498;6.556;2024-01-30T13:49:17;11.23;;;6.43;;
8564;SDS011;4320;51.498;6.556;2024-01-30T13:51:42;13.30;;;6.30;;
8564;SDS011;4320;51.498;6.556;2024-01-30T13:54:08;12.18;;;6.60;;
8564;SDS011;4320;51.498;6.556;2024-01-30T13:56:33;12.30;;;6.78;;
8564;SDS011;4320;51.498;6.556;2024-01-30T13:58:59;11.55;;;5.97;;
8564;SDS011;4320;51.498;6.556;2024-01-30T14:01:26;11.90;;;6.53;;
8564;SDS011;4320;51.498;6.556;2024-01-30T14:03:52;9.85;;;6.57;;
8564;SDS011;4320;51.498;6.556;2024-01-30T14:06:17;16.30;;;7.07;;
8564;SDS011;4320;51.498;6.556;2024-01-30T14:08:44;11.07;;;6.55;;
8564;SDS011;4320;51.498;6.556;2024-01-30T14:11:09;10.25;;;5.97;;
8564;SDS011;4320;51.498;6.556;2024-01-30T14:13:35;9.07;;;5.43;;
8564;SDS011;4320;51.498;6.556;2024-01-30T14:16:00;10.10;;;4.32;;
8564;SDS011;4320;51.498;6.556;2024-01-30T14:18:26;10.63;;;5.65;;
8564;SDS011;4320;51.498;6.556;2024-01-30T14:20:52;7.50;;;4.72;;
8564;SDS011;4320;51.498;6.556;2024-01-30T14:23:18;8.60;;;5.32;;
8564;SDS011;4320;51.498;6.556;2024-01-30T14:25:43;5.97;;;4.25;;
8564;SDS011;4320;51.498;6.556;2024-01-30T14:28:09;6.45;;;4.28;;
8564;SDS011;4320;51.498;6.556;2024-01-30T14:30:35;8.23;;;4.40;;
8564;SDS011;4320;51.498;6.556;2024-01-30T14:33:01;8.43;;;3.95;;
8564;SDS011;4320;51.498;6.556;2024-01-30T14:35:27;7.50;;;4.22;;
8564;SDS011;4320;51.498;6.556;2024-01-30T14:37:52;7.47;;;4.15;;
8564;SDS011;4320;51.498;6.556;2024-01-30T14:40:18;9.15;;;4.25;;
8564;SDS011;4320;51.498;6.556;2024-01-30T14:42:45;5.57;;;4.00;;
8564;SDS011;4320;51.498;6.556;2024-01-30T14:45:10;6.63;;;4.00;;
8564;SDS011;4320;51.498;6.556;2024-01-30T14:47:36;5.70;;;3.45;;
8564;SDS011;4320;51.498;6.556;2024-01-30T14:50:02;7.20;;;3.47;;
8564;SDS011;4320;51.498;6.556;2024-01-30T14:52:30;6.00;;;3.55;;
8564;SDS011;4320;51.498;6.556;2024-01-30T14:54:56;7.53;;;3.92;;